Time;durP1;ratioP1;P1;durP2;ratioP2;P2;SDS_P1;SDS_P2;PMS_P1;PMS_P2;Temp;Humidity;BMP_temperature;BMP_pressure;BME280_temperature;BME280_humidity;BME280_pressure;Samples;Min_cycle;Max_cycle;Signal;HPM_P1;HPM_P2
2022/07/23 00:00:29;;;;;;;3.72;3.05;;;;;;;22.49;51.67;101738.94;5054861;28;20104;-70
2022/07/23 00:03:04;;;;;;;8.82;3.17;;;;;;;22.42;51.79;101737.03;5055095;28;20075;-70
2022/07/23 00:05:31;;;;;;;4.57;3.17;;;;;;;22.36;51.79;101729.47;5055001;28;20384;-69
2022/07/23 00:08:01;;;;;;;3.72;2.90;;;;;;;22.32;52.18;101730.81;5054978;28;20526;-70
2022/07/23 00:10:27;;;;;;;3.78;3.38;;;;;;;22.29;51.90;101731.97;5055541;28;20475;-70
2022/07/23 00:12:58;;;;;;;4.55;3.20;;;;;;;22.26;51.97;101731.44;5055500;28;20037;-70
2022/07/23 00:15:25;;;;;;;4.70;3.28;;;;;;;22.22;52.07;101730.06;5053610;28;20032;-71
2022/07/23 00:17:51;;;;;;;6.00;3.17;;;;;;;22.17;51.95;101731.41;5053939;28;20033;-69
2022/07/23 00:20:18;;;;;;;6.82;3.28;;;;;;;22.12;52.05;101731.03;5054025;28;20041;-69
2022/07/23 00:22:48;;;;;;;4.90;3.15;;;;;;;22.07;52.04;101733.41;5054078;28;20548;-70
2022/07/23 00:25:15;;;;;;;4.32;3.30;;;;;;;22.04;52.07;101731.00;5053340;28;20041;-71
2022/07/23 00:27:59;;;;;;;6.78;3.70;;;;;;;21.99;52.26;101727.84;5053917;28;20576;-71
2022/07/23 00:30:29;;;;;;;4.45;3.35;;;;;;;21.95;52.15;101728.34;5052751;28;20041;-71
2022/07/23 00:33:01;;;;;;;4.15;3.25;;;;;;;21.90;52.37;101728.81;5053816;28;20044;-70
2022/07/23 00:35:30;;;;;;;7.30;3.42;;;;;;;21.86;52.17;101735.63;5053845;28;20048;-71
2022/07/23 00:37:59;;;;;;;5.97;3.47;;;;;;;21.82;52.36;101726.88;5053044;28;20041;-71
2022/07/23 00:40:26;;;;;;;6.65;3.40;;;;;;;21.80;52.29;101728.06;5053554;28;20086;-71
2022/07/23 00:42:55;;;;;;;4.40;3.40;;;;;;;21.76;52.60;101740.34;5051203;28;20047;-70
2022/07/23 00:45:22;;;;;;;3.28;2.92;;;;;;;21.74;52.36;101731.44;5051920;28;20045;-71
2022/07/23 00:47:49;;;;;;;4.65;3.20;;;;;;;21.70;52.36;101727.31;5053521;28;20044;-71
2022/07/23 00:50:16;;;;;;;5.70;3.60;;;;;;;21.67;52.45;101720.28;5051613;28;20279;-70
2022/07/23 00:52:47;;;;;;;4.25;3.15;;;;;;;21.64;52.79;101726.09;5052315;28;20111;-73
2022/07/23 00:55:14;;;;;;;4.40;3.88;;;;;;;21.62;52.50;101730.00;5052027;28;20068;-70
2022/07/23 00:57:41;;;;;;;4.40;3.45;;;;;;;21.58;52.70;101731.31;5053311;28;20051;-70
2022/07/23 01:00:11;;;;;;;6.50;3.40;;;;;;;21.53;52.85;101731.78;5052060;28;20128;-71
2022/07/23 01:02:42;;;;;;;4.85;3.28;;;;;;;21.49;52.89;101741.31;5052326;28;20509;-71
2022/07/23 01:05:09;;;;;;;4.78;3.70;;;;;;;21.46;52.75;101733.44;5051844;28;20423;-71
2022/07/23 01:07:37;;;;;;;5.80;3.80;;;;;;;21.42;52.84;101732.88;5051773;28;20136;-71
2022/07/23 01:10:30;;;;;;;4.18;3.30;;;;;;;21.39;52.63;101730.47;5052960;28;20127;-70
2022/07/23 01:13:00;;;;;;;4.63;3.92;;;;;;;21.36;52.66;101735.38;5052813;28;20462;-69
2022/07/23 01:15:28;;;;;;;3.50;3.20;;;;;;;21.33;52.79;101732.97;5051548;28;20496;-70
2022/07/23 01:17:55;;;;;;;5.78;3.47;;;;;;;21.27;52.57;101739.06;5051450;28;20631;-70
2022/07/23 01:20:22;;;;;;;5.05;4.00;;;;;;;21.22;52.68;101729.47;5052760;28;20041;-70
2022/07/23 01:22:55;;;;;;;4.88;3.70;;;;;;;21.19;53.00;101729.75;5051143;28;20427;-71
2022/07/23 01:25:23;;;;;;;4.43;3.40;;;;;;;21.16;52.70;101716.41;5034874;28;20460;-70
2022/07/23 01:27:56;;;;;;;5.32;4.00;;;;;;;21.11;52.83;101709.69;5035929;28;20041;-70
2022/07/23 01:30:23;;;;;;;6.15;4.10;;;;;;;21.09;53.01;101714.44;5053075;28;20033;-70
2022/07/23 01:32:51;;;;;;;7.97;3.78;;;;;;;21.02;52.68;101710.63;5052021;28;20110;-70
2022/07/23 01:35:18;;;;;;;6.25;4.10;;;;;;;20.99;52.84;101713.69;5051160;28;20041;-71
2022/07/23 01:37:46;;;;;;;7.70;4.05;;;;;;;20.93;53.03;101710.56;5051272;28;20499;-71
2022/07/23 01:40:13;;;;;;;5.25;4.32;;;;;;;20.89;52.74;101708.28;5050889;28;20035;-71
2022/07/23 01:43:05;;;;;;;4.07;3.67;;;;;;;20.85;53.28;101715.06;5052013;28;20513;-72
2022/07/23 01:45:35;;;;;;;5.63;3.40;;;;;;;20.85;52.80;101715.06;5050956;28;20041;-70
2022/07/23 01:48:01;;;;;;;4.20;3.67;;;;;;;20.83;53.16;101715.22;5050704;28;20060;-69
2022/07/23 01:50:36;;;;;;;4.70;3.65;;;;;;;20.82;52.84;101718.13;5050606;28;20068;-70
2022/07/23 01:53:22;;;;;;;5.22;3.92;;;;;;;20.78;53.18;101709.34;5050980;28;20051;-70
2022/07/23 01:55:49;;;;;;;4.40;4.00;;;;;;;20.75;53.30;101700.59;5050657;28;20419;-70
2022/07/23 01:58:15;;;;;;;4.25;3.50;;;;;;;20.71;53.11;101710.13;5051004;28;20135;-71
2022/07/23 02:00:42;;;;;;;5.90;3.83;;;;;;;20.66;53.01;101716.03;5050233;28;20403;-70
2022/07/23 02:03:13;;;;;;;5.40;3.35;;;;;;;20.64;53.46;101718.06;5050685;28;20051;-70
2022/07/23 02:05:40;;;;;;;5.40;4.05;;;;;;;20.62;53.38;101714.63;5050578;28;20085;-70
2022/07/23 02:08:07;;;;;;;4.88;3.40;;;;;;;20.56;53.47;101724.28;5050974;28;20041;-70
2022/07/23 02:10:35;;;;;;;4.38;3.08;;;;;;;20.49;53.04;101717.72;5050304;28;20048;-70
2022/07/23 02:13:04;;;;;;;4.13;3.72;;;;;;;20.43;53.24;101710.13;5050902;28;20095;-70
2022/07/23 02:15:31;;;;;;;6.45;3.80;;;;;;;20.37;53.37;101704.41;5052169;28;20133;-70
2022/07/23 02:17:58;;;;;;;4.97;4.07;;;;;;;20.34;53.25;101704.69;5050717;28;20045;-70
2022/07/23 02:20:25;;;;;;;4.63;3.75;;;;;;;20.30;53.27;101701.41;5051842;28;20465;-70
2022/07/23 02:22:56;;;;;;;4.70;3.88;;;;;;;20.27;53.26;101710.75;5051361;28;20037;-70
2022/07/23 02:25:22;;;;;;;4.40;3.53;;;;;;;20.26;53.66;101711.78;5051930;28;20236;-70
2022/07/23 02:27:55;;;;;;;7.88;4.38;;;;;;;20.25;53.33;101707.31;5050635;28;20045;-70
2022/07/23 02:30:22;;;;;;;4.63;4.13;;;;;;;20.23;53.50;101703.88;5050595;28;20131;-71
2022/07/23 02:32:51;;;;;;;4.18;3.78;;;;;;;20.22;53.73;101706.78;5050789;28;20056;-70
2022/07/23 02:35:18;;;;;;;6.45;3.53;;;;;;;20.20;53.72;101706.91;5051841;28;20056;-70
2022/07/23 02:37:45;;;;;;;5.72;3.90;;;;;;;20.16;53.22;101705.50;5050528;28;20553;-70
2022/07/23 02:40:12;;;;;;;6.53;4.07;;;;;;;20.11;53.53;101702.38;5051698;28;20438;-71
2022/07/23 02:42:42;;;;;;;4.78;3.80;;;;;;;20.04;53.35;101698.50;5050858;28;20056;-70
2022/07/23 02:45:09;;;;;;;4.10;3.70;;;;;;;19.98;53.28;101699.09;5050471;28;20045;-70
2022/07/23 02:47:36;;;;;;;4.28;3.58;;;;;;;19.93;53.66;101709.59;5050372;28;20072;-70
2022/07/23 02:50:05;;;;;;;7.03;4.28;;;;;;;19.91;53.47;101706.16;5050681;28;20041;-70
2022/07/23 02:52:32;;;;;;;5.30;4.43;;;;;;;19.87;53.62;101705.59;5050584;28;20041;-70
2022/07/23 02:54:58;;;;;;;5.70;4.40;;;;;;;19.85;53.67;101707.59;5050466;28;20041;-70
2022/07/23 02:57:25;;;;;;;7.65;4.22;;;;;;;19.84;53.70;101708.63;5050468;28;20040;-69
2022/07/23 02:59:52;;;;;;;5.20;4.45;;;;;;;19.83;53.44;101709.63;5050469;28;20041;-69
2022/07/23 03:02:18;;;;;;;5.05;4.53;;;;;;;19.81;53.64;101703.47;5050566;28;20051;-70
2022/07/23 03:04:45;;;;;;;7.45;4.75;;;;;;;19.78;53.94;101706.47;5051895;28;20106;-69
2022/07/23 03:07:12;;;;;;;6.45;4.47;;;;;;;19.76;53.70;101713.09;5054258;28;20102;-70
2022/07/23 03:09:38;;;;;;;5.53;4.22;;;;;;;19.71;54.03;101718.13;5056134;28;20480;-71
2022/07/23 03:12:07;;;;;;;5.20;4.15;;;;;;;19.67;54.09;101721.13;5054896;28;20041;-70
2022/07/23 03:14:40;;;;;;;5.95;4.47;;;;;;;19.64;53.88;101715.97;5054000;28;20123;-71
2022/07/23 03:17:08;;;;;;;5.13;4.63;;;;;;;19.62;54.14;101726.16;5054930;28;20067;-71
2022/07/23 03:19:36;;;;;;;5.13;4.10;;;;;;;19.59;54.43;101720.16;5053428;28;20516;-70
2022/07/23 03:22:03;;;;;;;7.57;4.85;;;;;;;19.55;54.52;101721.44;5053919;28;20037;-71
2022/07/23 03:27:24;;;;;;;5.07;4.57;;;;;;;19.48;54.53;101726.59;5054056;28;20064;-71
2022/07/23 03:29:52;;;;;;;6.65;5.32;;;;;;;19.46;54.53;101723.16;5053308;28;20057;-71
2022/07/23 03:32:19;;;;;;;6.47;5.10;;;;;;;19.45;54.62;101726.88;5053766;28;20436;-71
2022/07/23 03:34:47;;;;;;;7.15;4.47;;;;;;;19.45;54.55;101726.88;5053671;28;20556;-70
2022/07/23 03:37:15;;;;;;;6.38;4.40;;;;;;;19.46;54.67;101731.31;5054634;28;20531;-70
2022/07/23 03:39:42;;;;;;;4.78;4.38;;;;;;;19.46;54.87;101725.88;5053176;28;20139;-70
2022/07/23 03:42:09;;;;;;;4.78;4.25;;;;;;;19.47;54.74;101730.31;5053476;28;20399;-71
2022/07/23 03:44:36;;;;;;;6.20;4.28;;;;;;;19.47;54.52;101721.28;5053405;28;20063;-70
2022/07/23 03:47:04;;;;;;;5.72;4.25;;;;;;;19.46;54.48;101727.75;5052589;28;20095;-71
2022/07/23 03:49:31;;;;;;;4.55;4.05;;;;;;;19.45;54.32;101721.44;5053316;28;20521;-70
2022/07/23 03:51:58;;;;;;;4.85;4.13;;;;;;;19.45;54.63;101735.06;5053195;28;20191;-70
2022/07/23 03:54:24;;;;;;;5.85;4.63;;;;;;;19.44;54.62;101727.88;5053335;28;20128;-71
2022/07/23 03:56:51;;;;;;;6.80;4.53;;;;;;;19.41;54.36;101727.31;5054477;28;20048;-70
2022/07/23 03:59:18;;;;;;;7.45;4.93;;;;;;;19.38;54.47;101724.88;5052818;28;20137;-70
2022/07/23 04:01:49;;;;;;;5.18;4.25;;;;;;;19.35;54.48;101721.44;5053055;28;20347;-70
2022/07/23 04:04:17;;;;;;;4.75;3.92;;;;;;;19.31;54.55;101730.00;5053295;28;20037;-71
2022/07/23 04:06:44;;;;;;;4.82;4.32;;;;;;;19.26;54.85;101721.41;5052716;28;20053;-70
2022/07/23 04:09:11;;;;;;;4.53;4.05;;;;;;;19.22;55.05;101731.75;5052879;28;20053;-70
2022/07/23 04:11:38;;;;;;;4.80;4.32;;;;;;;19.16;55.03;101736.91;5052211;28;20037;-70
2022/07/23 04:14:07;;;;;;;5.28;4.30;;;;;;;19.12;55.18;101740.91;5053243;28;20037;-70
2022/07/23 04:16:34;;;;;;;4.78;4.15;;;;;;;19.08;54.87;101734.03;5054145;28;20490;-70
2022/07/23 04:19:01;;;;;;;5.90;4.68;;;;;;;19.02;54.81;101736.31;5052544;28;20048;-70
2022/07/23 04:21:32;;;;;;;6.30;5.10;;;;;;;19.01;55.26;101739.19;5052815;28;20548;-69
2022/07/23 04:24:04;;;;;;;7.18;5.10;;;;;;;19.00;55.46;101740.19;5052519;28;20041;-71
2022/07/23 04:26:30;;;;;;;6.82;4.93;;;;;;;18.97;55.38;101738.59;5052644;28;20049;-70
2022/07/23 04:28:57;;;;;;;4.95;4.38;;;;;;;18.94;55.25;101738.03;5052333;28;20049;-69
2022/07/23 04:31:24;;;;;;;5.45;4.50;;;;;;;18.94;55.66;101730.72;5052611;28;20041;-69
2022/07/23 04:33:52;;;;;;;7.00;4.15;;;;;;;18.95;55.50;101735.16;5052352;28;20441;-69
2022/07/23 04:36:19;;;;;;;7.03;5.05;;;;;;;18.97;55.98;101740.47;5053674;28;20087;-69
2022/07/23 04:38:46;;;;;;;6.03;4.70;;;;;;;18.99;56.12;101741.19;5052422;28;20037;-69
2022/07/23 04:41:18;;;;;;;7.07;5.15;;;;;;;19.02;56.13;101747.22;5052549;28;20041;-70
2022/07/23 04:43:47;;;;;;;5.47;4.50;;;;;;;19.03;56.09;101750.78;5050948;28;20037;-71
2022/07/23 04:46:14;;;;;;;9.27;4.95;;;;;;;19.04;56.32;101756.09;5051122;28;20128;-71
2022/07/23 04:48:46;;;;;;;8.27;4.95;;;;;;;19.04;56.40;101756.09;5052295;28;20041;-71
2022/07/23 04:51:14;;;;;;;6.97;5.40;;;;;;;19.03;56.39;101758.97;5052307;28;20056;-71
2022/07/23 04:53:42;;;;;;;9.65;5.57;;;;;;;19.04;56.41;101767.00;5053353;28;20124;-70
2022/07/23 04:56:10;;;;;;;8.00;5.55;;;;;;;19.07;56.60;101765.84;5051984;28;20037;-71
2022/07/23 04:58:36;;;;;;;8.95;5.05;;;;;;;19.09;56.37;101763.84;5052182;28;20041;-70
2022/07/23 05:01:03;;;;;;;7.28;5.38;;;;;;;19.12;56.86;101771.72;5052514;28;20044;-71
2022/07/23 05:03:32;;;;;;;6.90;5.40;;;;;;;19.16;56.49;101765.00;5052017;28;20452;-71
2022/07/23 05:05:59;;;;;;;7.82;5.30;;;;;;;19.21;57.04;101759.97;5053013;28;20143;-71
2022/07/23 05:08:26;;;;;;;9.05;5.57;;;;;;;19.25;57.19;101758.69;5051996;28;20045;-71
2022/07/23 05:10:55;;;;;;;7.57;5.30;;;;;;;19.28;57.02;101755.69;5051868;28;20108;-72
2022/07/23 05:13:23;;;;;;;8.70;5.68;;;;;;;19.32;57.17;101762.59;5052839;28;20115;-71
2022/07/23 05:15:52;;;;;;;6.40;5.65;;;;;;;19.35;57.13;101772.34;5051717;28;20075;-70
2022/07/23 05:18:19;;;;;;;8.00;6.07;;;;;;;19.39;56.83;101773.78;5035254;28;20037;-70
2022/07/23 05:20:46;;;;;;;7.70;5.40;;;;;;;19.42;57.25;101781.66;5035568;28;20531;-70
2022/07/23 05:23:19;;;;;;;7.40;5.68;;;;;;;19.45;57.24;101773.19;5035934;28;20041;-71
2022/07/23 05:25:47;;;;;;;8.73;6.03;;;;;;;19.48;57.05;101772.91;5051693;28;20067;-71
2022/07/23 05:28:15;;;;;;;7.43;5.65;;;;;;;19.53;57.32;101783.41;5051874;28;20037;-70
2022/07/23 05:30:43;;;;;;;6.68;5.75;;;;;;;19.56;57.31;101777.66;5049369;28;20041;-71
2022/07/23 05:33:14;;;;;;;6.38;5.68;;;;;;;19.62;57.25;101779.81;5051545;28;20045;-71
2022/07/23 05:35:41;;;;;;;9.45;6.22;;;;;;;19.66;57.11;101783.97;5051656;28;20072;-70
2022/07/23 05:38:39;;;;;;;11.13;6.10;;;;;;;19.67;57.13;101789.28;5036456;28;20049;-71
2022/07/23 05:41:06;;;;;;;8.88;6.60;;;;;;;19.71;57.57;101797.16;5033777;28;20041;-71
2022/07/23 05:43:37;;;;;;;10.25;6.80;;;;;;;19.75;57.36;101798.59;5035585;28;20517;-71
2022/07/23 05:46:09;;;;;;;11.13;6.70;;;;;;;19.80;57.58;101801.72;5051918;28;20045;-70
2022/07/23 05:48:38;;;;;;;8.88;6.38;;;;;;;19.86;57.31;101804.72;5051748;28;20044;-70
2022/07/23 05:51:10;;;;;;;7.93;6.13;;;;;;;19.90;57.30;101800.72;5052073;28;20045;-70
2022/07/23 05:53:40;;;;;;;10.95;7.28;;;;;;;19.94;57.41;101798.56;5035456;28;20357;-69
2022/07/23 05:56:15;;;;;;;9.00;7.40;;;;;;;20.00;57.82;101797.97;5051459;28;20128;-69
2022/07/23 05:58:42;;;;;;;11.32;6.82;;;;;;;20.05;57.46;101802.97;5051433;28;20037;-70
2022/07/23 06:01:11;;;;;;;10.27;6.38;;;;;;;20.11;57.49;101803.28;5051508;28;20052;-70
2022/07/23 06:03:46;;;;;;;9.43;7.35;;;;;;;20.20;57.77;101812.44;5052757;28;20045;-70
2022/07/23 06:06:13;;;;;;;9.20;6.28;;;;;;;20.26;57.69;101809.13;5053140;28;20128;-70
2022/07/23 06:08:40;;;;;;;11.70;6.70;;;;;;;20.34;57.67;101816.56;5052087;28;20264;-70
2022/07/23 06:11:08;;;;;;;8.40;6.15;;;;;;;20.42;58.06;101814.84;5051502;28;20060;-72
2022/07/23 06:13:35;;;;;;;8.38;6.20;;;;;;;20.52;57.59;101820.25;5050972;28;20048;-72
2022/07/23 06:16:02;;;;;;;8.00;6.70;;;;;;;20.62;57.62;101810.16;5051531;28;20499;-71
2022/07/23 06:18:29;;;;;;;9.07;7.20;;;;;;;20.72;57.77;101808.22;5052855;28;20091;-71
2022/07/23 06:20:56;;;;;;;12.50;6.60;;;;;;;20.81;57.43;101817.41;5051336;28;20574;-71
2022/07/23 06:23:27;;;;;;;8.52;6.28;;;;;;;20.84;57.46;101817.09;5051491;28;20491;-71
2022/07/23 06:25:54;;;;;;;11.30;7.20;;;;;;;20.86;57.64;101821.41;5050971;28;20045;-72
2022/07/23 06:28:20;;;;;;;9.20;5.90;;;;;;;20.93;57.49;101821.66;5052223;28;20053;-71
2022/07/23 06:30:48;;;;;;;8.52;6.10;;;;;;;21.07;57.45;101817.53;5051305;28;20136;-71
2022/07/23 06:33:19;;;;;;;8.32;5.32;;;;;;;21.17;57.46;101816.47;5051032;28;20045;-71
2022/07/23 06:35:45;;;;;;;7.38;4.93;;;;;;;21.31;57.24;101812.38;5052292;28;20478;-72
2022/07/23 06:38:12;;;;;;;6.15;4.90;;;;;;;21.41;56.97;101823.22;5051163;28;20579;-72
2022/07/23 06:40:41;;;;;;;6.72;4.93;;;;;;;21.50;56.82;101825.03;5051284;28;20037;-72
2022/07/23 06:43:11;;;;;;;8.48;4.85;;;;;;;21.61;56.95;101822.06;5052125;28;20071;-72
2022/07/23 06:45:38;;;;;;;6.90;5.03;;;;;;;21.72;56.77;101820.97;5051099;28;20163;-71
2022/07/23 06:48:05;;;;;;;5.65;4.72;;;;;;;21.80;56.50;101831.97;5051019;28;20049;-72
2022/07/23 06:50:33;;;;;;;5.40;4.30;;;;;;;21.89;56.13;101826.41;5051074;28;20041;-72
2022/07/23 06:53:01;;;;;;;7.63;4.97;;;;;;;21.99;55.53;101825.47;5050503;28;20135;-72
2022/07/23 06:55:28;;;;;;;5.55;4.43;;;;;;;22.05;55.56;101830.31;5050693;28;20059;-72
2022/07/23 06:57:54;;;;;;;4.75;4.25;;;;;;;22.18;55.43;101834.34;5050958;28;20045;-71
2022/07/23 07:00:21;;;;;;;5.97;4.53;;;;;;;22.30;55.26;101825.91;5051156;28;20116;-69
2022/07/23 07:02:49;;;;;;;14.95;4.32;;;;;;;22.42;54.82;101828.19;5050074;28;20068;-71
2022/07/23 07:05:16;;;;;;;6.07;4.22;;;;;;;22.56;55.08;101831.34;5051532;28;20512;-68
2022/07/23 07:07:42;;;;;;;4.43;3.25;;;;;;;22.68;54.14;101832.78;5051429;28;20136;-67
2022/07/23 07:10:09;;;;;;;7.25;3.65;;;;;;;22.83;54.25;101828.44;5050975;28;20052;-67
2022/07/23 07:12:42;;;;;;;6.07;3.40;;;;;;;22.97;53.86;101826.94;5050819;28;20047;-67
2022/07/23 07:15:09;;;;;;;5.15;3.20;;;;;;;23.09;53.18;101821.00;5051073;28;20059;-67
2022/07/23 07:17:36;;;;;;;5.45;3.10;;;;;;;23.19;52.90;101828.22;5050657;28;20064;-67
2022/07/23 07:20:03;;;;;;;5.75;3.20;;;;;;;23.24;52.75;101826.69;5050939;28;20422;-67
2022/07/23 07:22:29;;;;;;;4.93;3.17;;;;;;;23.32;52.66;101829.47;5050617;28;20479;-68
2022/07/23 07:24:57;;;;;;;6.45;2.90;;;;;;;23.41;51.98;101831.19;5050881;28;20506;-67
2022/07/23 07:27:24;;;;;;;8.75;2.97;;;;;;;23.56;52.06;101825.06;5050776;28;20049;-67
2022/07/23 07:29:50;;;;;;;4.03;2.90;;;;;;;23.72;51.81;101828.69;5050852;28;20053;-68
2022/07/23 07:32:17;;;;;;;5.45;3.17;;;;;;;23.84;51.60;101834.72;5050797;28;20048;-70
2022/07/23 07:35:04;;;;;;;3.63;2.80;;;;;;;23.92;51.02;101840.19;5049020;28;20073;-67
2022/07/23 07:37:31;;;;;;;3.85;2.40;;;;;;;23.97;50.67;101834.19;5050909;28;20056;-66
2022/07/23 07:39:58;;;;;;;4.88;2.40;;;;;;;24.11;50.72;101830.75;5050109;28;20056;-67
2022/07/23 07:42:24;;;;;;;3.28;2.95;;;;;;;24.26;50.32;101826.25;5049285;28;20037;-67
2022/07/23 07:44:52;;;;;;;6.88;2.70;;;;;;;24.37;50.01;101830.56;5050694;28;20135;-66
2022/07/23 07:47:18;;;;;;;5.40;2.83;;;;;;;24.51;49.56;101827.06;5050631;28;20041;-68
2022/07/23 07:49:45;;;;;;;7.35;3.10;;;;;;;24.61;49.28;101829.66;5051346;28;20045;-67
2022/07/23 07:52:11;;;;;;;5.65;3.20;;;;;;;24.67;48.93;101828.94;5051500;28;20483;-66
2022/07/23 07:54:38;;;;;;;9.45;3.38;;;;;;;24.77;48.65;101835.09;5054571;28;20041;-66
2022/07/23 07:57:05;;;;;;;3.13;2.50;;;;;;;24.92;48.42;101838.78;5055126;28;20120;-66
2022/07/23 07:59:34;;;;;;;3.70;2.92;;;;;;;25.01;48.31;101834.13;5054651;28;20140;-66
2022/07/23 08:02:00;;;;;;;4.20;3.25;;;;;;;25.04;47.76;101855.78;5054098;28;20052;-65
2022/07/23 08:04:27;;;;;;;5.05;3.00;;;;;;;25.05;47.34;101849.25;5054226;28;20390;-66
2022/07/23 08:06:54;;;;;;;7.15;3.40;;;;;;;25.06;46.70;101841.84;5054590;28;20043;-66
2022/07/23 08:09:20;;;;;;;8.70;3.75;;;;;;;25.06;47.14;101837.22;5053825;28;20491;-66
2022/07/23 08:11:47;;;;;;;3.65;3.20;;;;;;;25.14;47.40;101848.16;5054078;28;20048;-65
2022/07/23 08:14:15;;;;;;;6.80;3.50;;;;;;;25.24;46.86;101850.69;5053151;28;20068;-66
2022/07/23 08:16:42;;;;;;;4.22;3.20;;;;;;;25.36;46.89;101852.00;5054244;28;20053;-65
2022/07/23 08:19:28;;;;;;;6.68;2.65;;;;;;;25.53;46.68;101855.50;5054103;28;20041;-66
2022/07/23 08:21:55;;;;;;;5.13;2.70;;;;;;;25.59;46.29;101850.13;5054726;28;20076;-67
2022/07/23 08:24:26;;;;;;;5.72;3.00;;;;;;;25.63;45.57;101847.88;5054459;28;20041;-66
2022/07/23 08:26:52;;;;;;;5.38;3.28;;;;;;;25.67;45.69;101849.25;5054516;28;20057;-66
2022/07/23 08:29:19;;;;;;;4.53;2.92;;;;;;;25.80;45.66;101854.13;5054202;28;20041;-66
2022/07/23 08:31:52;;;;;;;5.55;2.97;;;;;;;25.98;45.52;101854.66;5053179;28;20037;-66
2022/07/23 08:34:23;;;;;;;4.63;2.95;;;;;;;26.14;45.41;101859.19;5054591;28;20045;-67
2022/07/23 08:36:50;;;;;;;4.57;2.72;;;;;;;26.28;45.31;101852.84;5054726;28;20048;-67
2022/07/23 08:39:16;;;;;;;5.80;3.05;;;;;;;26.38;44.66;101858.13;5054220;28;20041;-66
2022/07/23 08:41:43;;;;;;;3.95;2.88;;;;;;;26.46;44.69;101858.03;5054225;28;20044;-67
2022/07/23 08:44:13;;;;;;;4.43;2.65;;;;;;;26.53;44.41;101859.00;5054328;28;20060;-67
2022/07/23 08:46:40;;;;;;;4.25;2.85;;;;;;;26.61;44.29;101858.91;5053550;28;20051;-66
2022/07/23 08:49:09;;;;;;;5.18;2.70;;;;;;;26.72;43.97;101863.06;5053654;28;20079;-66
2022/07/23 08:51:36;;;;;;;4.05;2.60;;;;;;;26.76;43.72;101872.72;5054439;28;20445;-66
2022/07/23 08:54:05;;;;;;;4.97;3.00;;;;;;;26.80;43.49;101860.25;5054250;28;20402;-66
2022/07/23 08:56:32;;;;;;;4.78;3.20;;;;;;;26.86;43.16;101857.59;5053238;28;20057;-66
2022/07/23 08:58:59;;;;;;;4.30;2.83;;;;;;;26.94;43.32;101856.63;5054090;28;20033;-66
2022/07/23 09:01:25;;;;;;;2.85;2.08;;;;;;;27.04;43.10;101862.72;5054498;28;20391;-66
2022/07/23 09:03:53;;;;;;;4.10;2.08;;;;;;;27.13;42.74;101866.22;5053691;28;20498;-67
2022/07/23 09:06:20;;;;;;;4.10;2.28;;;;;;;27.22;42.87;101860.41;5053768;28;20037;-69
2022/07/23 09:08:47;;;;;;;8.27;2.70;;;;;;;27.30;42.48;101858.59;5053593;28;20087;-69
2022/07/23 09:11:16;;;;;;;5.72;2.80;;;;;;;27.35;42.10;101861.63;5053652;28;20041;-68
2022/07/23 09:13:48;;;;;;;3.65;2.60;;;;;;;27.36;41.96;101866.09;5052878;28;20060;-68
2022/07/23 09:16:18;;;;;;;4.38;2.78;;;;;;;27.37;41.98;101856.75;5052807;28;20037;-69
2022/07/23 09:18:57;;;;;;;3.47;2.75;;;;;;;27.42;41.75;101857.03;5051795;28;20411;-67
2022/07/23 09:21:29;;;;;;;6.10;2.97;;;;;;;27.46;41.83;101867.47;5051692;28;20075;-68
2022/07/23 09:24:05;;;;;;;4.47;3.05;;;;;;;27.51;41.43;101864.16;5052791;28;20083;-68
2022/07/23 09:26:40;;;;;;;5.38;2.83;;;;;;;27.49;41.38;101869.00;5052568;28;20554;-72
2022/07/23 09:29:09;;;;;;;4.88;2.97;;;;;;;27.49;41.41;101866.22;5052594;28;20068;-69
2022/07/23 09:31:55;;;;;;;5.25;2.90;;;;;;;27.47;41.17;101854.53;5052370;28;20037;-69
2022/07/23 09:34:32;;;;;;;3.55;2.90;;;;;;;27.47;41.26;101860.91;5052499;28;20479;-69
2022/07/23 09:37:18;;;;;;;5.05;2.80;;;;;;;27.46;41.42;101856.44;5052288;28;20064;-69
2022/07/23 09:39:47;;;;;;;6.13;3.50;;;;;;;27.48;41.11;101857.09;5051313;28;20049;-69
2022/07/23 09:42:17;;;;;;;7.43;4.13;;;;;;;27.44;41.36;101855.78;5052264;28;20562;-69
2022/07/23 09:44:52;;;;;;;5.05;4.07;;;;;;;27.39;40.75;101854.66;5052772;28;20040;-68
2022/07/23 09:47:20;;;;;;;4.45;3.88;;;;;;;27.35;40.89;101856.09;5052455;28;20047;-70
2022/07/23 09:50:13;;;;;;;6.03;3.72;;;;;;;27.39;41.12;101854.66;5052441;28;20080;-70
2022/07/23 09:52:48;;;;;;;4.95;3.53;;;;;;;27.50;41.28;101863.31;5052397;28;20347;-70
2022/07/23 09:55:17;;;;;;;5.65;3.90;;;;;;;27.60;41.17;101863.00;5051783;28;20048;-70
2022/07/23 09:57:46;;;;;;;3.85;2.55;;;;;;;27.69;40.89;101861.00;5051722;28;20513;-67
2022/07/23 10:00:13;;;;;;;5.22;2.72;;;;;;;27.77;40.74;101849.81;5052181;28;20040;-68
2022/07/23 10:02:45;;;;;;;4.30;2.65;;;;;;;27.80;40.63;101853.03;5052145;28;20083;-68
2022/07/23 10:05:28;;;;;;;3.67;2.70;;;;;;;27.88;40.39;101859.47;5050769;28;20056;-67
2022/07/23 10:08:16;;;;;;;3.58;2.67;;;;;;;28.00;40.22;101852.34;5051942;28;20103;-68
2022/07/23 10:11:03;;;;;;;3.95;2.58;;;;;;;28.09;40.03;101859.44;5052225;28;20059;-67
2022/07/23 10:13:58;;;;;;;6.20;2.58;;;;;;;28.11;39.78;101857.34;5052276;28;20134;-67
2022/07/23 10:16:47;;;;;;;7.10;2.40;;;;;;;28.14;39.84;101860.53;5031339;28;20060;-67
2022/07/23 10:19:14;;;;;;;4.70;2.63;;;;;;;28.26;40.00;101858.16;5031552;28;20061;-69
2022/07/23 10:21:47;;;;;;;4.88;2.50;;;;;;;28.41;39.72;101850.63;5031538;28;20045;-68
2022/07/23 10:24:33;;;;;;;3.47;3.00;;;;;;;28.45;39.18;101851.06;5034813;28;20045;-67
2022/07/23 10:27:21;;;;;;;4.15;2.50;;;;;;;28.41;39.03;101858.03;5051455;28;20410;-68
2022/07/23 10:29:54;;;;;;;3.88;2.45;;;;;;;28.42;38.85;101857.00;5051885;28;20387;-68
2022/07/23 10:32:29;;;;;;;4.25;2.20;;;;;;;28.41;38.56;101858.91;5051474;28;20513;-67
2022/07/23 10:35:33;;;;;;;4.97;2.47;;;;;;;28.40;38.34;101848.91;5051206;28;20045;-67
2022/07/23 10:38:42;;;;;;;4.35;2.22;;;;;;;28.42;38.28;101857.84;5050113;28;20475;-67
2022/07/23 10:41:08;;;;;;;4.00;3.00;;;;;;;28.43;38.32;101851.25;5051016;28;20513;-66
2022/07/23 10:43:39;;;;;;;4.45;2.88;;;;;;;28.46;38.33;101852.75;5051414;28;20124;-67
2022/07/23 10:46:31;;;;;;;6.93;2.95;;;;;;;28.57;38.64;101848.59;5048888;28;20049;-67
2022/07/23 10:49:28;;;;;;;4.05;2.80;;;;;;;28.77;38.82;101844.88;5051424;28;20049;-67
2022/07/23 10:52:13;;;;;;;4.32;2.58;;;;;;;28.97;38.81;101852.44;5049191;28;20053;-67
2022/07/23 10:54:42;;;;;;;5.30;2.92;;;;;;;29.14;38.58;101855.72;5051046;28;20495;-67
2022/07/23 10:57:11;;;;;;;2.90;2.30;;;;;;;29.23;37.99;101854.50;5051271;28;20047;-66
2022/07/23 11:02:32;;;;;;;4.72;2.95;;;;;;;29.33;37.93;101852.19;5051642;28;20041;-67
2022/07/23 11:05:01;;;;;;;3.85;2.38;;;;;;;29.46;37.88;101846.72;5051298;28;20049;-67
2022/07/23 11:07:28;;;;;;;4.35;3.17;;;;;;;29.65;37.72;101854.19;5051215;28;20048;-67
2022/07/23 11:09:55;;;;;;;3.17;2.40;;;;;;;29.74;37.25;101854.88;5051371;28;20044;-67
2022/07/23 11:12:27;;;;;;;3.45;2.50;;;;;;;29.77;36.49;101854.47;5051414;28;20037;-67
2022/07/23 11:15:12;;;;;;;3.80;2.80;;;;;;;29.86;36.42;101850.44;5051295;28;20041;-68
2022/07/23 11:17:39;;;;;;;4.57;2.90;;;;;;;29.96;36.02;101848.09;5049362;28;20055;-68
2022/07/23 11:20:09;;;;;;;3.70;2.80;;;;;;;29.97;35.36;101860.00;5051302;28;20043;-67
2022/07/23 11:22:36;;;;;;;5.10;4.57;;;;;;;29.85;34.97;101848.72;5051372;28;20131;-68
2022/07/23 11:25:29;;;;;;;5.00;4.10;;;;;;;29.83;35.17;101852.75;5050607;28;20055;-68
2022/07/23 11:28:14;;;;;;;7.50;3.90;;;;;;;29.90;35.31;101853.63;5052844;28;20048;-67
2022/07/23 11:30:47;;;;;;;5.78;3.20;;;;;;;30.04;35.79;101860.91;5055150;28;20501;-66
2022/07/23 11:33:20;;;;;;;18.63;3.97;;;;;;;30.17;35.67;101849.81;5056141;28;20040;-66
2022/07/23 11:35:58;;;;;;;5.68;3.13;;;;;;;30.31;35.58;101853.44;5055375;28;20048;-68
2022/07/23 11:38:25;;;;;;;7.55;3.60;;;;;;;30.47;35.29;101850.22;5054258;28;20068;-66
2022/07/23 11:40:54;;;;;;;17.30;4.18;;;;;;;30.61;35.30;101848.31;5054894;28;20052;-66
2022/07/23 11:43:24;;;;;;;15.10;4.13;;;;;;;30.75;34.68;101846.34;5052095;28;20075;-67